Pagrindinis puslapis
METAR-TAF:

METAR-TAF

Oro uostai :

Funšalis, Madeiros salos, Portugalija

platuma: 32-41-52N, ilguma: 016-46-28W, Aukštis: 59 m

Dabartinis oras

Ataskaita buvo paskelbta 19 minutes, ne 18:30 UTC
Vėjas 6 kt iš Šiaurės/Šiaurės Vakarų, svyruoja nuo Pietvakarių ir Šiaurės/Šiaurės Rytų
Temperatūra 20°C
Drėgmė 60%
Slėgis 1019 hPa
Matomumas 10 km arba daugiau
Išsisklaidę debesys ne aukštis 1600 ft

METAR: LPMA 221830Z 33006KT 230V020 9999 SCT016 20/12 Q1019

Laikas: 19:49 (18:49 UTC)

Prognozė

Ataskaita buvo paskelbta 1 valandą ir 49 minutes, ne 17:00 UTC
Prognozė galioja nuo 22 metu 18 UTC su 23 metu 18 UTC
Vėjas 5 kt nuo kintamojo kryptimis
Matomumas 10 km arba daugiau
Išsisklaidę debesys ne aukštis 1600 ft
Tapsmas
nuo 22 metu 18 UTC su 22 metu 21 UTC
Vėjas 10 kt iš Šiaurės/Šiaurės Vakarų
Tapsmas
nuo 23 metu 09 UTC su 23 metu 12 UTC
Vėjas 13 kt iš Šiaurės/Šiaurės Rytų

TAF: LPMA 221700Z 2218/2318 VRB05KT 9999 SCT016 BECMG 2218/2221 34010KT BECMG 2309/2312 02013KT

Orai ataskaitas ir orų prognozės (METAR, TAF).

turimą stotys yra geltonos ir raudonos taškus žemėlapyje.

Perkelti pele per norėdami pamatyti stoties vardą.

Tada spustelėkite, norėdami matyti oro stebėjimo ir prognozės.

Norėdami pakeisti žemėlapį: spustelėkite ant žalios mygtukų su juodo kryžiaus žemyn,; žalią mygtuką su brūkšneliu, jei norite nutolinti; arba žalių rodyklių gretimoms žemėlapius.


METAR-TAF: